Time;durP1;ratioP1;P1;durP2;ratioP2;P2;SDS_P1;SDS_P2;PMS_P1;PMS_P2;Temp;Humidity;BMP_temperature;BMP_pressure;BME280_temperature;BME280_humidity;BME280_pressure;Samples;Min_cycle;Max_cycle;Signal;HPM_P1;HPM_P2
2022/12/20 00:00:50;;;;;;;;;;;10.60;84.50;;;;;;5072907;28;19963;-36
2022/12/20 00:03:16;;;;;;;;;;;10.70;84.60;;;;;;5072860;28;19918;-34
2022/12/20 00:05:41;;;;;;;;;;;10.70;84.60;;;;;;5072884;28;19912;-35
2022/12/20 00:08:07;;;;;;;;;;;10.70;84.50;;;;;;5072771;28;19923;-34
2022/12/20 00:10:37;;;;;;;;;;;10.70;84.40;;;;;;5072433;28;19921;-35
2022/12/20 00:13:02;;;;;;;;;;;10.70;84.40;;;;;;5072568;28;19913;-35
2022/12/20 00:15:28;;;;;;;;;;;10.70;84.40;;;;;;5072578;28;19965;-34
2022/12/20 00:17:54;;;;;;;;;;;10.70;84.40;;;;;;5072523;28;19912;-35
2022/12/20 00:20:19;;;;;;;;;;;10.70;84.40;;;;;;5072354;28;20273;-35
2022/12/20 00:22:44;;;;;;;;;;;10.70;84.40;;;;;;5072469;28;19919;-36
2022/12/20 00:25:10;;;;;;;;;;;10.80;84.40;;;;;;5072465;28;20001;-35
2022/12/20 00:27:36;;;;;;;;;;;10.80;84.40;;;;;;5072405;28;19913;-34
2022/12/20 00:30:01;;;;;;;;;;;10.80;84.30;;;;;;5072315;28;19920;-35
2022/12/20 00:32:27;;;;;;;;;;;10.80;84.30;;;;;;5072246;28;20330;-34
2022/12/20 00:34:52;;;;;;;;;;;10.80;84.20;;;;;;5072347;28;19917;-35
2022/12/20 00:37:18;;;;;;;;;;;10.90;84.20;;;;;;5072210;28;19913;-34
2022/12/20 00:39:43;;;;;;;;;;;10.90;84.10;;;;;;5072319;28;19956;-34
2022/12/20 00:42:09;;;;;;;;;;;10.90;84.00;;;;;;5072043;28;20338;-34
2022/12/20 00:44:34;;;;;;;;;;;11.00;83.90;;;;;;5072016;28;20007;-35
2022/12/20 00:47:00;;;;;;;;;;;11.00;83.90;;;;;;5071654;28;19919;-34
2022/12/20 00:49:25;;;;;;;;;;;11.10;83.90;;;;;;5072001;28;20265;-34
2022/12/20 00:51:51;;;;;;;;;;;11.10;83.70;;;;;;5071864;28;19966;-35
2022/12/20 00:54:16;;;;;;;;;;;11.20;83.70;;;;;;5071869;28;19920;-33
2022/12/20 00:56:42;;;;;;;;;;;11.20;83.60;;;;;;5071915;28;19913;-35
2022/12/20 00:59:07;;;;;;;;;;;11.20;83.50;;;;;;5071924;28;19966;-36
2022/12/20 01:01:36;;;;;;;;;;;11.30;83.40;;;;;;5072008;28;19950;-36
2022/12/20 01:04:01;;;;;;;;;;;11.30;83.40;;;;;;5072004;28;20386;-35
2022/12/20 01:06:27;;;;;;;;;;;11.40;83.40;;;;;;5071839;28;19920;-34
2022/12/20 01:08:53;;;;;;;;;;;11.40;83.30;;;;;;5071874;28;19919;-35
2022/12/20 01:11:20;;;;;;;;;;;11.40;83.10;;;;;;5071539;28;19928;-34
2022/12/20 01:13:47;;;;;;;;;;;11.40;83.20;;;;;;5071975;28;19912;-34
2022/12/20 01:16:15;;;;;;;;;;;11.50;83.20;;;;;;5071900;28;19919;-35
2022/12/20 01:18:41;;;;;;;;;;;11.50;83.10;;;;;;5071760;28;19939;-35
2022/12/20 01:21:08;;;;;;;;;;;11.50;83.10;;;;;;5071824;28;20379;-35
2022/12/20 01:23:33;;;;;;;;;;;11.50;83.00;;;;;;5071942;28;20003;-34
2022/12/20 01:26:00;;;;;;;;;;;11.50;83.00;;;;;;5071786;28;20014;-35
2022/12/20 01:28:26;;;;;;;;;;;11.50;83.00;;;;;;5071670;28;20488;-33
2022/12/20 01:30:51;;;;;;;;;;;11.60;83.70;;;;;;5071658;28;20011;-34
2022/12/20 01:33:17;;;;;;;;;;;11.60;83.00;;;;;;5071712;28;19912;-34
2022/12/20 01:35:53;;;;;;;;;;;11.60;83.00;;;;;;5071714;28;19913;-35
2022/12/20 01:38:18;;;;;;;;;;;11.60;83.00;;;;;;5071522;28;19912;-34
2022/12/20 01:40:44;;;;;;;;;;;11.60;83.10;;;;;;5071531;28;19913;-34
2022/12/20 01:43:11;;;;;;;;;;;11.60;83.10;;;;;;5071505;28;19916;-33
2022/12/20 01:45:37;;;;;;;;;;;11.60;83.10;;;;;;5071502;28;19939;-33
2022/12/20 01:48:02;;;;;;;;;;;11.60;83.00;;;;;;5071477;28;19992;-33
2022/12/20 01:50:28;;;;;;;;;;;11.60;83.00;;;;;;5071349;28;19920;-33
2022/12/20 01:52:53;;;;;;;;;;;11.60;83.10;;;;;;5071385;28;19978;-33
2022/12/20 01:55:21;;;;;;;;;;;11.60;83.10;;;;;;5071421;28;19913;-34
2022/12/20 01:57:50;;;;;;;;;;;11.60;83.10;;;;;;5072716;28;19986;-34
2022/12/20 02:00:16;;;;;;;;;;;11.60;83.20;;;;;;5074938;28;20358;-33
2022/12/20 02:02:42;;;;;;;;;;;11.50;83.10;;;;;;5075203;28;19916;-33
2022/12/20 02:05:08;;;;;;;;;;;11.50;83.20;;;;;;5074909;28;20006;-32
2022/12/20 02:07:35;;;;;;;;;;;11.50;83.30;;;;;;5074624;28;20029;-34
2022/12/20 02:10:01;;;;;;;;;;;11.50;83.40;;;;;;5074256;28;19969;-34
2022/12/20 02:12:38;;;;;;;;;;;11.50;83.50;;;;;;5074571;28;20074;-34
2022/12/20 02:15:19;;;;;;;;;;;11.50;83.60;;;;;;5074841;28;20312;-34
2022/12/20 02:17:44;;;;;;;;;;;11.40;83.60;;;;;;5074784;28;19955;-34
2022/12/20 02:20:10;;;;;;;;;;;11.40;83.70;;;;;;5074662;28;19916;-34
2022/12/20 02:22:44;;;;;;;;;;;11.40;83.80;;;;;;5074798;28;20292;-33
2022/12/20 02:25:20;;;;;;;;;;;11.30;83.90;;;;;;5074570;28;19965;-34
2022/12/20 02:27:57;;;;;;;;;;;11.30;84.10;;;;;;5075009;28;20000;-33
2022/12/20 02:30:25;;;;;;;;;;;11.20;84.20;;;;;;5074605;28;19919;-34
2022/12/20 02:32:59;;;;;;;;;;;11.20;84.30;;;;;;5074511;28;19920;-33
2022/12/20 02:35:26;;;;;;;;;;;11.20;84.50;;;;;;5074573;28;19923;-40
2022/12/20 02:37:53;;;;;;;;;;;11.10;84.60;;;;;;5074450;28;19999;-39
2022/12/20 02:40:20;;;;;;;;;;;11.10;84.70;;;;;;5074348;28;19913;-34
2022/12/20 02:42:47;;;;;;;;;;;11.10;84.80;;;;;;5074484;28;19912;-34
2022/12/20 02:45:16;;;;;;;;;;;11.10;84.80;;;;;;5074556;28;19913;-34
2022/12/20 02:47:47;;;;;;;;;;;11.10;85.00;;;;;;5074230;28;19912;-34
2022/12/20 02:50:13;;;;;;;;;;;11.10;85.00;;;;;;5074079;28;19920;-34
2022/12/20 02:52:39;;;;;;;;;;;11.10;85.10;;;;;;5074085;28;20402;-33
2022/12/20 02:55:04;;;;;;;;;;;11.10;85.20;;;;;;5074207;28;19990;-34
2022/12/20 02:57:33;;;;;;;;;;;11.00;85.20;;;;;;5074039;28;20287;-33
2022/12/20 03:00:00;;;;;;;;;;;11.10;85.20;;;;;;5074186;28;19916;-32
2022/12/20 03:02:26;;;;;;;;;;;11.10;85.30;;;;;;5073927;28;19913;-35
2022/12/20 03:04:52;;;;;;;;;;;11.10;85.30;;;;;;5073978;28;20413;-33
2022/12/20 03:07:18;;;;;;;;;;;11.10;85.30;;;;;;5073932;28;19912;-34
2022/12/20 03:09:43;;;;;;;;;;;11.00;85.30;;;;;;5073783;28;19981;-35
2022/12/20 03:12:10;;;;;;;;;;;11.10;85.40;;;;;;5073538;28;20007;-33
2022/12/20 03:14:36;;;;;;;;;;;11.10;85.40;;;;;;5073828;28;19942;-33
2022/12/20 03:17:02;;;;;;;;;;;11.10;85.50;;;;;;5073789;28;19912;-33
2022/12/20 03:19:28;;;;;;;;;;;11.10;85.60;;;;;;5073717;28;19920;-33
2022/12/20 03:21:53;;;;;;;;;;;11.10;85.60;;;;;;5073948;28;19919;-34
2022/12/20 03:24:19;;;;;;;;;;;11.10;85.60;;;;;;5073571;28;20054;-34
2022/12/20 03:26:44;;;;;;;;;;;11.10;86.30;;;;;;5073865;28;19951;-34
2022/12/20 03:29:10;;;;;;;;;;;11.00;85.60;;;;;;5073687;28;20368;-33
2022/12/20 03:31:36;;;;;;;;;;;11.00;85.80;;;;;;5073590;28;19954;-33
2022/12/20 03:34:01;;;;;;;;;;;11.00;85.80;;;;;;5071959;28;19913;-33
2022/12/20 03:36:27;;;;;;;;;;;11.00;85.80;;;;;;5073643;28;19958;-33
2022/12/20 03:38:53;;;;;;;;;;;11.00;85.90;;;;;;5073628;28;20291;-34
2022/12/20 03:41:20;;;;;;;;;;;11.00;85.90;;;;;;5073424;28;19999;-33
2022/12/20 03:43:45;;;;;;;;;;;11.00;86.00;;;;;;5073336;28;19966;-33
2022/12/20 03:46:11;;;;;;;;;;;11.00;86.00;;;;;;5073245;28;19953;-33
2022/12/20 03:48:36;;;;;;;;;;;11.00;86.00;;;;;;5071833;28;19978;-33
2022/12/20 03:51:02;;;;;;;;;;;11.00;86.00;;;;;;5073070;28;19963;-34
2022/12/20 03:53:27;;;;;;;;;;;11.10;86.10;;;;;;5073112;28;19960;-33
2022/12/20 03:55:53;;;;;;;;;;;11.10;86.00;;;;;;5072653;28;20425;-38
2022/12/20 03:58:19;;;;;;;;;;;11.10;86.00;;;;;;5072905;28;19913;-33
2022/12/20 04:00:44;;;;;;;;;;;11.10;86.00;;;;;;5072599;28;20353;-35
2022/12/20 04:03:10;;;;;;;;;;;11.10;86.00;;;;;;5072855;28;20363;-33
2022/12/20 04:05:35;;;;;;;;;;;11.10;86.00;;;;;;5072707;28;20438;-32
2022/12/20 04:08:01;;;;;;;;;;;11.10;86.00;;;;;;5072689;28;20003;-32
2022/12/20 04:10:26;;;;;;;;;;;11.10;86.00;;;;;;5072805;28;19924;-32
2022/12/20 04:12:52;;;;;;;;;;;11.20;86.10;;;;;;5071318;28;19943;-33
2022/12/20 04:15:17;;;;;;;;;;;11.20;86.00;;;;;;5072515;28;19913;-32
2022/12/20 04:17:43;;;;;;;;;;;11.20;86.00;;;;;;5072605;28;20003;-34
2022/12/20 04:20:17;;;;;;;;;;;11.20;86.00;;;;;;5071815;28;19924;-32
2022/12/20 04:22:49;;;;;;;;;;;11.30;86.00;;;;;;5072186;28;19935;-33
2022/12/20 04:25:15;;;;;;;;;;;11.30;86.00;;;;;;5072159;28;19912;-34
2022/12/20 04:27:41;;;;;;;;;;;11.30;85.90;;;;;;5071941;28;20003;-33
2022/12/20 04:30:07;;;;;;;;;;;11.30;85.90;;;;;;5072132;28;19999;-33
2022/12/20 04:32:32;;;;;;;;;;;11.30;85.90;;;;;;5071959;28;19916;-33
2022/12/20 04:34:58;;;;;;;;;;;11.30;85.90;;;;;;5071878;28;20356;-37
2022/12/20 04:37:23;;;;;;;;;;;11.30;85.90;;;;;;5071815;28;20368;-33
2022/12/20 04:39:48;;;;;;;;;;;11.40;85.90;;;;;;5071870;28;19981;-32
2022/12/20 04:42:14;;;;;;;;;;;11.40;85.90;;;;;;5072033;28;19923;-35
2022/12/20 04:44:39;;;;;;;;;;;11.40;85.90;;;;;;5071777;28;20322;-32
2022/12/20 04:47:05;;;;;;;;;;;11.40;85.80;;;;;;5071762;28;19919;-33
2022/12/20 04:49:30;;;;;;;;;;;11.40;85.80;;;;;;5071752;28;19916;-33
2022/12/20 04:53:46;;;;;;;;;;;11.40;85.80;;;;;;5071843;28;19917;-33
2022/12/20 04:54:41;;;;;;;;;;;11.40;85.80;;;;;;5071809;28;19916;-33
2022/12/20 04:57:08;;;;;;;;;;;11.40;85.80;;;;;;5071686;28;19913;-32
2022/12/20 04:59:34;;;;;;;;;;;11.40;85.80;;;;;;5071773;28;19912;-34
2022/12/20 05:01:59;;;;;;;;;;;11.40;85.80;;;;;;5071408;28;20011;-33
2022/12/20 05:04:25;;;;;;;;;;;11.50;85.80;;;;;;5071493;28;19912;-34
2022/12/20 05:06:50;;;;;;;;;;;11.50;85.80;;;;;;5071759;28;19932;-33
2022/12/20 05:09:16;;;;;;;;;;;11.50;85.80;;;;;;5071644;28;19994;-33
2022/12/20 05:11:41;;;;;;;;;;;11.50;85.80;;;;;;5071201;28;20027;-43
2022/12/20 05:14:07;;;;;;;;;;;11.50;85.80;;;;;;5071474;28;19992;-35
2022/12/20 05:16:32;;;;;;;;;;;11.50;85.70;;;;;;5071701;28;19909;-33
2022/12/20 05:18:58;;;;;;;;;;;11.50;85.80;;;;;;5071705;28;19912;-33
2022/12/20 05:26:52;;;;;;;;;;;11.60;85.80;;;;;;5071757;28;19931;-33
2022/12/20 05:29:17;;;;;;;;;;;11.50;85.80;;;;;;5071580;28;19908;-32
2022/12/20 05:31:43;;;;;;;;;;;11.50;85.90;;;;;;5071469;28;20356;-33
2022/12/20 05:34:08;;;;;;;;;;;11.50;85.90;;;;;;5075155;28;20287;-32
2022/12/20 05:36:34;;;;;;;;;;;11.50;86.10;;;;;;5075781;28;19908;-33
2022/12/20 05:38:59;;;;;;;;;;;11.50;86.10;;;;;;5075198;28;19908;-33
2022/12/20 05:41:25;;;;;;;;;;;11.50;86.10;;;;;;5075352;28;20009;-32
2022/12/20 05:43:50;;;;;;;;;;;11.50;86.20;;;;;;5075326;28;19912;-32
2022/12/20 05:46:16;;;;;;;;;;;11.50;86.20;;;;;;5075110;28;20272;-33
2022/12/20 05:48:41;;;;;;;;;;;11.50;86.20;;;;;;5075020;28;19956;-33
2022/12/20 05:51:07;;;;;;;;;;;11.50;86.20;;;;;;5074989;28;19920;-33
2022/12/20 05:53:32;;;;;;;;;;;11.50;86.30;;;;;;5074970;28;20284;-33
2022/12/20 05:55:58;;;;;;;;;;;11.50;86.30;;;;;;5075042;28;20396;-33
2022/12/20 05:58:24;;;;;;;;;;;11.50;86.40;;;;;;5075131;28;19930;-33
2022/12/20 06:00:49;;;;;;;;;;;11.50;86.40;;;;;;5075105;28;20010;-40
2022/12/20 06:03:15;;;;;;;;;;;11.50;86.50;;;;;;5075226;28;19965;-33
2022/12/20 06:05:42;;;;;;;;;;;11.40;86.50;;;;;;5075026;28;19908;-32
2022/12/20 06:08:08;;;;;;;;;;;11.50;86.60;;;;;;5075150;28;20386;-33
2022/12/20 06:10:34;;;;;;;;;;;11.40;86.50;;;;;;5074763;28;19939;-35
2022/12/20 06:13:01;;;;;;;;;;;11.50;86.70;;;;;;5075210;28;19909;-31
2022/12/20 06:15:26;;;;;;;;;;;11.50;86.60;;;;;;5075041;28;20352;-34
2022/12/20 06:17:52;;;;;;;;;;;11.50;86.60;;;;;;5074783;28;19915;-34
2022/12/20 06:20:17;;;;;;;;;;;11.50;86.60;;;;;;5074685;28;19908;-33
2022/12/20 06:22:42;;;;;;;;;;;11.50;86.60;;;;;;5074608;28;19985;-36
2022/12/20 06:25:08;;;;;;;;;;;11.50;86.60;;;;;;5073247;28;20220;-33
2022/12/20 06:27:35;;;;;;;;;;;11.50;86.60;;;;;;5074821;28;19909;-33
2022/12/20 06:30:00;;;;;;;;;;;11.50;86.60;;;;;;5074631;28;19909;-33
2022/12/20 06:32:26;;;;;;;;;;;11.50;86.60;;;;;;5074553;28;19912;-34
2022/12/20 06:34:51;;;;;;;;;;;11.50;86.60;;;;;;5074679;28;19988;-34
2022/12/20 06:37:17;;;;;;;;;;;11.50;86.60;;;;;;5074557;28;19910;-36
2022/12/20 06:39:42;;;;;;;;;;;11.50;86.70;;;;;;5074388;28;19954;-35
2022/12/20 06:42:08;;;;;;;;;;;11.50;86.70;;;;;;5074436;28;19995;-36
2022/12/20 06:44:33;;;;;;;;;;;11.50;86.70;;;;;;5073953;28;19915;-34
2022/12/20 06:46:59;;;;;;;;;;;11.50;86.60;;;;;;5074312;28;19908;-33
2022/12/20 06:49:24;;;;;;;;;;;11.50;86.60;;;;;;5074245;28;19915;-34
2022/12/20 06:51:50;;;;;;;;;;;11.50;86.60;;;;;;5074184;28;20402;-33
2022/12/20 06:54:15;;;;;;;;;;;11.50;86.50;;;;;;5074116;28;19999;-34
2022/12/20 06:56:41;;;;;;;;;;;11.50;86.50;;;;;;5074038;28;19916;-34
2022/12/20 06:59:06;;;;;;;;;;;11.60;86.60;;;;;;5074504;28;19915;-34
2022/12/20 07:01:31;;;;;;;;;;;11.60;86.50;;;;;;5074014;28;20005;-34
2022/12/20 07:03:57;;;;;;;;;;;11.60;86.50;;;;;;5074302;28;19909;-34
2022/12/20 07:06:22;;;;;;;;;;;11.60;86.50;;;;;;5073980;28;19916;-33
2022/12/20 07:08:48;;;;;;;;;;;11.60;86.40;;;;;;5073858;28;19962;-36
2022/12/20 07:11:14;;;;;;;;;;;11.60;86.40;;;;;;5073966;28;19928;-35
2022/12/20 07:13:39;;;;;;;;;;;11.60;86.40;;;;;;5073809;28;19908;-36
2022/12/20 07:16:05;;;;;;;;;;;11.60;86.40;;;;;;5072424;28;19908;-35
2022/12/20 07:18:31;;;;;;;;;;;11.60;86.40;;;;;;5073823;28;19912;-33
2022/12/20 07:21:05;;;;;;;;;;;11.60;86.30;;;;;;5074189;28;19909;-35
2022/12/20 07:23:31;;;;;;;;;;;11.70;86.40;;;;;;5073678;28;19944;-34
2022/12/20 07:25:58;;;;;;;;;;;11.60;86.30;;;;;;5073700;28;20344;-34
2022/12/20 07:28:24;;;;;;;;;;;11.60;86.30;;;;;;5073901;28;20339;-35
2022/12/20 07:30:50;;;;;;;;;;;11.60;86.20;;;;;;5073768;28;20003;-34
2022/12/20 07:33:15;;;;;;;;;;;11.70;86.30;;;;;;5073557;28;19944;-34
2022/12/20 07:35:42;;;;;;;;;;;11.60;86.20;;;;;;5073863;28;19908;-34
2022/12/20 07:38:08;;;;;;;;;;;11.70;86.20;;;;;;5073704;28;19997;-33
2022/12/20 07:40:33;;;;;;;;;;;11.70;86.20;;;;;;5073342;28;19951;-35
2022/12/20 07:42:58;;;;;;;;;;;11.60;86.10;;;;;;5073362;28;19909;-33
2022/12/20 07:45:24;;;;;;;;;;;11.60;86.10;;;;;;5073248;28;19920;-34
2022/12/20 07:47:49;;;;;;;;;;;11.60;86.10;;;;;;5073210;28;19970;-34
2022/12/20 07:50:15;;;;;;;;;;;11.60;86.10;;;;;;5073224;28;20003;-36
2022/12/20 07:52:43;;;;;;;;;;;11.70;86.10;;;;;;5073163;28;19913;-45
2022/12/20 07:55:09;;;;;;;;;;;11.70;86.10;;;;;;5072391;28;19912;-34
2022/12/20 07:57:37;;;;;;;;;;;11.70;86.00;;;;;;5073148;28;19908;-34
2022/12/20 08:00:03;;;;;;;;;;;11.70;86.00;;;;;;5073448;28;19995;-34
2022/12/20 08:02:34;;;;;;;;;;;11.70;85.90;;;;;;5073195;28;19948;-34
2022/12/20 08:05:00;;;;;;;;;;;11.70;85.90;;;;;;5072922;28;19959;-33
2022/12/20 08:07:27;;;;;;;;;;;11.80;85.90;;;;;;5073054;28;19909;-35
2022/12/20 08:09:53;;;;;;;;;;;11.80;85.80;;;;;;5072745;28;19942;-33
2022/12/20 08:12:19;;;;;;;;;;;11.70;85.80;;;;;;5072473;28;20383;-34
2022/12/20 08:14:44;;;;;;;;;;;11.70;85.80;;;;;;5072757;28;19912;-34
2022/12/20 08:17:10;;;;;;;;;;;11.80;85.80;;;;;;5072728;28;19912;-35
2022/12/20 08:19:36;;;;;;;;;;;11.80;85.70;;;;;;5072744;28;20300;-34
2022/12/20 08:22:02;;;;;;;;;;;11.80;85.70;;;;;;5072662;28;19912;-34
2022/12/20 08:24:27;;;;;;;;;;;11.70;85.70;;;;;;5072951;28;19918;-35
2022/12/20 08:26:53;;;;;;;;;;;11.70;85.70;;;;;;5072590;28;19999;-34
2022/12/20 08:29:19;;;;;;;;;;;11.80;85.70;;;;;;5072709;28;20426;-34
2022/12/20 08:31:45;;;;;;;;;;;11.80;85.70;;;;;;5073131;28;19982;-36
2022/12/20 08:34:10;;;;;;;;;;;11.80;85.70;;;;;;5072482;28;19917;-34
2022/12/20 08:36:36;;;;;;;;;;;11.80;85.60;;;;;;5072477;28;19947;-35
2022/12/20 08:39:02;;;;;;;;;;;11.80;85.60;;;;;;5072428;28;20299;-34
2022/12/20 08:41:27;;;;;;;;;;;11.80;85.60;;;;;;5072418;28;19919;-35
2022/12/20 08:43:53;;;;;;;;;;;11.70;85.60;;;;;;5072728;28;19912;-35
2022/12/20 08:46:18;;;;;;;;;;;11.70;85.60;;;;;;5072216;28;19955;-34
2022/12/20 08:48:44;;;;;;;;;;;11.70;85.70;;;;;;5072355;28;20343;-35
2022/12/20 08:51:10;;;;;;;;;;;11.70;85.70;;;;;;5072282;28;19923;-33
2022/12/20 08:53:36;;;;;;;;;;;11.70;85.70;;;;;;5072371;28;19913;-35
2022/12/20 08:56:02;;;;;;;;;;;11.70;85.70;;;;;;5072108;28;19912;-35
2022/12/20 08:58:28;;;;;;;;;;;11.70;85.80;;;;;;5072279;28;19912;-35
2022/12/20 09:00:57;;;;;;;;;;;11.80;85.80;;;;;;5072035;28;19919;-35
2022/12/20 09:03:22;;;;;;;;;;;11.70;85.70;;;;;;5070880;28;19917;-34
2022/12/20 09:05:48;;;;;;;;;;;11.70;85.70;;;;;;5071867;28;20368;-34
2022/12/20 09:08:14;;;;;;;;;;;11.80;85.70;;;;;;5071829;28;20007;-34
2022/12/20 09:10:39;;;;;;;;;;;11.70;85.70;;;;;;5072007;28;20255;-33
2022/12/20 09:13:05;;;;;;;;;;;11.70;85.70;;;;;;5072170;28;20003;-37
2022/12/20 09:15:33;;;;;;;;;;;11.70;85.70;;;;;;5072074;28;19919;-34
2022/12/20 09:17:59;;;;;;;;;;;11.70;85.80;;;;;;5071940;28;19966;-35
2022/12/20 09:20:24;;;;;;;;;;;11.70;85.90;;;;;;5072063;28;20236;-34
2022/12/20 09:22:50;;;;;;;;;;;11.70;86.00;;;;;;5071913;28;20367;-35
2022/12/20 09:25:15;;;;;;;;;;;11.70;86.00;;;;;;5071994;28;19955;-35
2022/12/20 09:27:41;;;;;;;;;;;11.60;86.00;;;;;;5071945;28;19920;-34
2022/12/20 09:30:07;;;;;;;;;;;11.60;86.10;;;;;;5071853;28;19920;-35
2022/12/20 09:32:32;;;;;;;;;;;11.60;86.20;;;;;;5071768;28;19923;-35
2022/12/20 09:34:58;;;;;;;;;;;11.60;86.30;;;;;;5071804;28;19916;-35
2022/12/20 09:37:23;;;;;;;;;;;11.50;86.40;;;;;;5071844;28;20049;-35
2022/12/20 09:39:50;;;;;;;;;;;11.50;86.50;;;;;;5071964;28;19912;-35
2022/12/20 09:42:23;;;;;;;;;;;11.50;86.60;;;;;;5072124;28;19920;-35
2022/12/20 09:44:49;;;;;;;;;;;11.50;86.60;;;;;;5071803;28;19923;-36
2022/12/20 09:47:19;;;;;;;;;;;11.50;86.70;;;;;;5070351;28;20003;-36
2022/12/20 09:49:48;;;;;;;;;;;11.40;86.70;;;;;;5071694;28;19962;-34
2022/12/20 09:52:22;;;;;;;;;;;11.40;86.80;;;;;;5071449;28;19916;-34
2022/12/20 09:54:48;;;;;;;;;;;11.50;86.90;;;;;;5071716;28;20057;-36
2022/12/20 09:57:19;;;;;;;;;;;11.50;86.90;;;;;;5070458;28;19948;-34
2022/12/20 09:59:45;;;;;;;;;;;11.50;86.80;;;;;;5071587;28;19934;-34
2022/12/20 10:02:11;;;;;;;;;;;11.60;86.90;;;;;;5071574;28;19995;-34
2022/12/20 10:04:37;;;;;;;;;;;11.60;87.50;;;;;;5071544;28;19919;-35
2022/12/20 10:07:12;;;;;;;;;;;11.50;86.80;;;;;;5071630;28;20283;-35
2022/12/20 10:09:53;;;;;;;;;;;11.60;86.90;;;;;;5071597;28;20436;-34
2022/12/20 10:12:41;;;;;;;;;;;11.50;86.80;;;;;;5071353;28;20007;-36
2022/12/20 10:15:15;;;;;;;;;;;11.50;86.90;;;;;;5071786;28;19920;-35
2022/12/20 10:17:41;;;;;;;;;;;11.50;87.00;;;;;;5071936;28;19991;-36
2022/12/20 10:20:25;;;;;;;;;;;11.50;87.00;;;;;;5075123;28;19946;-35
2022/12/20 10:23:08;;;;;;;;;;;11.50;87.00;;;;;;5075081;28;19912;-34
2022/12/20 10:25:34;;;;;;;;;;;11.50;87.00;;;;;;5075024;28;19919;-34
2022/12/20 10:28:01;;;;;;;;;;;11.50;87.10;;;;;;5075291;28;20421;-34
2022/12/20 10:30:27;;;;;;;;;;;11.50;87.10;;;;;;5075076;28;20283;-36
2022/12/20 10:32:53;;;;;;;;;;;11.50;87.10;;;;;;5074866;28;19923;-35
2022/12/20 10:35:39;;;;;;;;;;;11.50;87.10;;;;;;5074838;28;19912;-36
2022/12/20 10:38:06;;;;;;;;;;;11.50;87.20;;;;;;5074885;28;19912;-35
2022/12/20 10:40:34;;;;;;;;;;;11.40;87.30;;;;;;5075130;28;19940;-37
2022/12/20 10:43:00;;;;;;;;;;;11.50;87.50;;;;;;5075110;28;19912;-35
2022/12/20 10:45:28;;;;;;;;;;;11.40;87.50;;;;;;5075040;28;19944;-34
2022/12/20 10:47:58;;;;;;;;;;;11.40;87.50;;;;;;5074663;28;19966;-34
2022/12/20 10:50:24;;;;;;;;;;;11.40;87.60;;;;;;5074886;28;20364;-34
2022/12/20 10:53:18;;;;;;;;;;;11.40;87.70;;;;;;5073335;28;20003;-35
2022/12/20 10:55:43;;;;;;;;;;;11.40;87.70;;;;;;5074825;28;19913;-34
2022/12/20 10:58:13;;;;;;;;;;;11.40;87.70;;;;;;5074541;28;19974;-35
2022/12/20 11:00:39;;;;;;;;;;;11.40;87.80;;;;;;5074905;28;20010;-34
2022/12/20 11:03:10;;;;;;;;;;;11.40;87.80;;;;;;5074232;28;19962;-33
2022/12/20 11:05:37;;;;;;;;;;;11.50;87.90;;;;;;5074193;28;19916;-34
2022/12/20 11:08:11;;;;;;;;;;;11.40;87.80;;;;;;5074603;28;20368;-34
2022/12/20 11:10:37;;;;;;;;;;;11.50;87.80;;;;;;5073925;28;19913;-35
2022/12/20 11:13:02;;;;;;;;;;;11.50;87.90;;;;;;5074199;28;19916;-34
2022/12/20 11:15:32;;;;;;;;;;;11.50;87.90;;;;;;5074175;28;19938;-34
2022/12/20 11:18:01;;;;;;;;;;;11.50;87.90;;;;;;5074161;28;19913;-35
2022/12/20 11:20:29;;;;;;;;;;;11.50;87.90;;;;;;5074272;28;20054;-34
2022/12/20 11:23:13;;;;;;;;;;;11.50;87.90;;;;;;5074580;28;20046;-37
2022/12/20 11:25:59;;;;;;;;;;;11.50;88.00;;;;;;5074088;28;19924;-36
2022/12/20 11:28:47;;;;;;;;;;;11.50;87.90;;;;;;5032573;28;19919;-33
2022/12/20 11:31:15;;;;;;;;;;;11.50;87.90;;;;;;5035764;28;19916;-34
2022/12/20 11:34:03;;;;;;;;;;;11.50;88.00;;;;;;5074074;28;19912;-33
2022/12/20 11:36:28;;;;;;;;;;;11.50;88.00;;;;;;5073869;28;19916;-36
2022/12/20 11:38:57;;;;;;;;;;;11.60;88.10;;;;;;5073882;28;19913;-34
2022/12/20 11:41:27;;;;;;;;;;;11.60;88.00;;;;;;5073859;28;19912;-34
2022/12/20 11:43:52;;;;;;;;;;;11.60;88.00;;;;;;5073578;28;19955;-34
2022/12/20 11:46:27;;;;;;;;;;;11.60;88.00;;;;;;5073427;28;19986;-36
2022/12/20 11:49:03;;;;;;;;;;;11.60;88.00;;;;;;5073383;28;19913;-35
2022/12/20 11:51:31;;;;;;;;;;;11.60;88.00;;;;;;5073423;28;19928;-36
2022/12/20 11:54:23;;;;;;;;;;;11.70;88.00;;;;;;5073719;28;20364;-34
2022/12/20 11:56:51;;;;;;;;;;;11.60;88.10;;;;;;5042097;28;20276;-40
2022/12/20 11:59:29;;;;;;;;;;;11.70;88.20;;;;;;5073753;28;20364;-37
2022/12/20 12:01:59;;;;;;;;;;;11.60;88.10;;;;;;5073413;28;19934;-35
2022/12/20 12:04:26;;;;;;;;;;;11.60;88.20;;;;;;5073025;28;19913;-37
2022/12/20 12:07:09;;;;;;;;;;;11.70;88.30;;;;;;5073111;28;19912;-34
2022/12/20 12:09:41;;;;;;;;;;;11.70;88.40;;;;;;5073298;28;20383;-40
2022/12/20 12:12:27;;;;;;;;;;;11.70;88.40;;;;;;5072443;28;19921;-34
2022/12/20 12:15:04;;;;;;;;;;;11.60;88.30;;;;;;5073030;28;20362;-34
2022/12/20 12:17:42;;;;;;;;;;;11.60;88.30;;;;;;5072706;28;19913;-35
2022/12/20 12:20:33;;;;;;;;;;;11.60;88.50;;;;;;5072854;28;19978;-34
2022/12/20 12:23:04;;;;;;;;;;;11.70;88.60;;;;;;5072734;28;19927;-35
2022/12/20 12:25:30;;;;;;;;;;;11.60;88.70;;;;;;5073087;28;19913;-34
2022/12/20 12:27:55;;;;;;;;;;;11.70;88.80;;;;;;5072952;28;20275;-34
2022/12/20 12:30:21;;;;;;;;;;;11.70;88.80;;;;;;5071384;28;19912;-34
2022/12/20 12:32:57;;;;;;;;;;;11.60;88.80;;;;;;5072528;28;19916;-34
2022/12/20 12:35:37;;;;;;;;;;;11.70;88.90;;;;;;5072485;28;20372;-35
2022/12/20 12:38:03;;;;;;;;;;;11.70;89.00;;;;;;5072792;28;20337;-33
2022/12/20 12:40:49;;;;;;;;;;;11.60;88.90;;;;;;5072555;28;20015;-34
2022/12/20 12:43:20;;;;;;;;;;;11.60;89.00;;;;;;5072715;28;19913;-35
2022/12/20 12:45:50;;;;;;;;;;;11.70;89.00;;;;;;5072729;28;20391;-36
2022/12/20 12:48:21;;;;;;;;;;;11.70;89.00;;;;;;5072514;28;19916;-35
2022/12/20 12:50:49;;;;;;;;;;;11.70;89.00;;;;;;5072326;28;19919;-34
2022/12/20 12:53:16;;;;;;;;;;;11.70;89.00;;;;;;5072379;28;20370;-34
2022/12/20 12:55:45;;;;;;;;;;;11.70;89.00;;;;;;5072677;28;20295;-34
2022/12/20 12:58:23;;;;;;;;;;;11.70;89.00;;;;;;5072565;28;20402;-33
2022/12/20 13:00:55;;;;;;;;;;;11.70;89.60;;;;;;5072229;28;19939;-34
2022/12/20 13:03:39;;;;;;;;;;;11.70;89.10;;;;;;5072298;28;19977;-34
2022/12/20 13:06:27;;;;;;;;;;;11.70;89.00;;;;;;5070886;28;20011;-34
2022/12/20 13:08:55;;;;;;;;;;;11.70;89.10;;;;;;5072517;28;19990;-34
2022/12/20 13:11:37;;;;;;;;;;;11.70;89.20;;;;;;5072107;28;19920;-35
2022/12/20 13:14:22;;;;;;;;;;;11.70;89.30;;;;;;5072504;28;19919;-34
2022/12/20 13:16:50;;;;;;;;;;;11.70;89.30;;;;;;5072400;28;20379;-37
2022/12/20 13:19:15;;;;;;;;;;;11.70;89.50;;;;;;5072236;28;19923;-34
2022/12/20 13:21:42;;;;;;;;;;;11.70;89.60;;;;;;5070931;28;19912;-35
2022/12/20 13:24:27;;;;;;;;;;;11.70;89.60;;;;;;5072371;28;19913;-35
2022/12/20 13:26:52;;;;;;;;;;;11.70;89.60;;;;;;5071923;28;19952;-34
2022/12/20 13:29:25;;;;;;;;;;;11.70;89.60;;;;;;5070771;28;19919;-37
2022/12/20 13:31:50;;;;;;;;;;;11.70;89.60;;;;;;5072530;28;20007;-34
2022/12/20 13:34:36;;;;;;;;;;;11.70;89.60;;;;;;5072069;28;20360;-35
2022/12/20 13:37:02;;;;;;;;;;;11.70;89.80;;;;;;5071892;28;19920;-34
2022/12/20 13:39:27;;;;;;;;;;;11.70;89.70;;;;;;5071969;28;19913;-34
2022/12/20 13:42:06;;;;;;;;;;;11.70;89.80;;;;;;5071992;28;20472;-33
2022/12/20 13:44:45;;;;;;;;;;;11.70;89.80;;;;;;5070854;28;19974;-36
2022/12/20 13:47:27;;;;;;;;;;;11.70;89.90;;;;;;5072087;28;20325;-35
2022/12/20 13:49:52;;;;;;;;;;;11.70;89.90;;;;;;5071731;28;19912;-34
2022/12/20 13:52:18;;;;;;;;;;;11.70;90.00;;;;;;5071639;28;19924;-34
2022/12/20 13:54:47;;;;;;;;;;;11.70;90.00;;;;;;5074937;28;19912;-35
2022/12/20 13:57:14;;;;;;;;;;;11.60;89.90;;;;;;5075695;28;19919;-35
2022/12/20 13:59:43;;;;;;;;;;;11.60;90.00;;;;;;5075576;28;19992;-36
2022/12/20 14:02:13;;;;;;;;;;;11.60;90.00;;;;;;5075578;28;19963;-36
2022/12/20 14:04:40;;;;;;;;;;;11.60;90.00;;;;;;5075309;28;20062;-35
2022/12/20 14:07:08;;;;;;;;;;;11.60;90.10;;;;;;5075312;28;19916;-34
2022/12/20 14:09:35;;;;;;;;;;;11.60;90.00;;;;;;5075359;28;19919;-35
2022/12/20 14:12:04;;;;;;;;;;;11.60;90.30;;;;;;5075038;28;19920;-35
2022/12/20 14:14:30;;;;;;;;;;;11.70;90.10;;;;;;5075280;28;19912;-35
2022/12/20 14:17:12;;;;;;;;;;;11.60;90.00;;;;;;5075192;28;20252;-34
2022/12/20 14:19:38;;;;;;;;;;;11.70;90.10;;;;;;5073846;28;20051;-34
2022/12/20 14:22:04;;;;;;;;;;;11.60;90.10;;;;;;5075045;28;19919;-34
2022/12/20 14:24:29;;;;;;;;;;;11.70;90.10;;;;;;5075051;28;19917;-33
2022/12/20 14:26:55;;;;;;;;;;;11.60;90.10;;;;;;5074949;28;19913;-33